sensor_id;sensor_type;location;lat;lon;timestamp;temperature;humidity
18805;DHT22;9530;48.930;9.526;2022-07-06T00:01:18;15.10;99.90
18805;DHT22;9530;48.930;9.526;2022-07-06T00:03:45;15.10;99.90
18805;DHT22;9530;48.930;9.526;2022-07-06T00:06:12;15.20;99.90
18805;DHT22;9530;48.930;9.526;2022-07-06T00:08:39;15.20;99.90
18805;DHT22;9530;48.930;9.526;2022-07-06T00:11:07;15.20;99.90
18805;DHT22;9530;48.930;9.526;2022-07-06T00:13:33;15.10;99.90
18805;DHT22;9530;48.930;9.526;2022-07-06T00:16:00;15.10;99.90
18805;DHT22;9530;48.930;9.526;2022-07-06T00:18:28;15.10;99.90
18805;DHT22;9530;48.930;9.526;2022-07-06T00:20:55;15.00;99.90
18805;DHT22;9530;48.930;9.526;2022-07-06T00:23:22;15.10;99.90
18805;DHT22;9530;48.930;9.526;2022-07-06T00:25:49;14.90;99.90
18805;DHT22;9530;48.930;9.526;2022-07-06T00:28:16;14.90;99.90
18805;DHT22;9530;48.930;9.526;2022-07-06T00:30:42;14.90;99.90
18805;DHT22;9530;48.930;9.526;2022-07-06T00:33:09;14.90;99.90
18805;DHT22;9530;48.930;9.526;2022-07-06T00:35:37;15.00;99.90
18805;DHT22;9530;48.930;9.526;2022-07-06T00:38:04;15.00;99.90
18805;DHT22;9530;48.930;9.526;2022-07-06T00:40:31;15.10;99.90
18805;DHT22;9530;48.930;9.526;2022-07-06T00:42:57;15.00;99.90
18805;DHT22;9530;48.930;9.526;2022-07-06T00:45:24;14.90;99.90
18805;DHT22;9530;48.930;9.526;2022-07-06T00:47:51;14.90;99.90
18805;DHT22;9530;48.930;9.526;2022-07-06T00:50:18;14.90;99.90
18805;DHT22;9530;48.930;9.526;2022-07-06T00:52:50;14.90;99.90
18805;DHT22;9530;48.930;9.526;2022-07-06T00:55:18;14.90;99.90
18805;DHT22;9530;48.930;9.526;2022-07-06T00:57:45;14.80;99.90
18805;DHT22;9530;48.930;9.526;2022-07-06T01:00:14;14.80;99.90
18805;DHT22;9530;48.930;9.526;2022-07-06T01:02:42;14.70;99.90
18805;DHT22;9530;48.930;9.526;2022-07-06T01:05:10;14.70;99.90
18805;DHT22;9530;48.930;9.526;2022-07-06T01:07:39;14.60;99.90
18805;DHT22;9530;48.930;9.526;2022-07-06T01:10:09;14.60;99.90
18805;DHT22;9530;48.930;9.526;2022-07-06T01:12:37;14.50;99.90
18805;DHT22;9530;48.930;9.526;2022-07-06T01:15:06;14.60;99.90
18805;DHT22;9530;48.930;9.526;2022-07-06T01:17:33;14.50;99.90
18805;DHT22;9530;48.930;9.526;2022-07-06T01:20:08;14.50;99.90
18805;DHT22;9530;48.930;9.526;2022-07-06T01:22:35;14.40;99.90
18805;DHT22;9530;48.930;9.526;2022-07-06T01:25:02;14.30;99.90
18805;DHT22;9530;48.930;9.526;2022-07-06T01:27:29;14.20;99.90
18805;DHT22;9530;48.930;9.526;2022-07-06T01:29:56;14.20;99.90
18805;DHT22;9530;48.930;9.526;2022-07-06T01:32:23;14.20;99.90
18805;DHT22;9530;48.930;9.526;2022-07-06T01:34:49;14.10;99.90
18805;DHT22;9530;48.930;9.526;2022-07-06T01:37:17;14.10;99.90
18805;DHT22;9530;48.930;9.526;2022-07-06T01:39:44;14.10;99.90
18805;DHT22;9530;48.930;9.526;2022-07-06T01:42:11;14.10;99.90
18805;DHT22;9530;48.930;9.526;2022-07-06T01:44:38;14.10;99.90
18805;DHT22;9530;48.930;9.526;2022-07-06T01:47:05;14.00;99.90
18805;DHT22;9530;48.930;9.526;2022-07-06T01:49:31;14.00;99.90
18805;DHT22;9530;48.930;9.526;2022-07-06T01:51:58;14.00;99.90
18805;DHT22;9530;48.930;9.526;2022-07-06T01:54:26;13.90;99.90
18805;DHT22;9530;48.930;9.526;2022-07-06T01:56:52;14.00;99.90
18805;DHT22;9530;48.930;9.526;2022-07-06T01:59:19;13.90;99.90
18805;DHT22;9530;48.930;9.526;2022-07-06T02:01:46;13.80;99.90
18805;DHT22;9530;48.930;9.526;2022-07-06T02:04:12;13.70;99.90
18805;DHT22;9530;48.930;9.526;2022-07-06T02:06:39;13.70;99.90
18805;DHT22;9530;48.930;9.526;2022-07-06T02:09:06;13.70;99.90
18805;DHT22;9530;48.930;9.526;2022-07-06T02:11:34;13.60;99.90
18805;DHT22;9530;48.930;9.526;2022-07-06T02:14:00;13.60;99.90
18805;DHT22;9530;48.930;9.526;2022-07-06T02:16:27;13.50;99.90
18805;DHT22;9530;48.930;9.526;2022-07-06T02:18:54;13.70;99.90
18805;DHT22;9530;48.930;9.526;2022-07-06T02:21:20;13.70;99.90
18805;DHT22;9530;48.930;9.526;2022-07-06T02:23:47;13.70;99.90
18805;DHT22;9530;48.930;9.526;2022-07-06T02:26:14;13.60;99.90
18805;DHT22;9530;48.930;9.526;2022-07-06T02:28:42;13.70;99.90
18805;DHT22;9530;48.930;9.526;2022-07-06T02:31:10;13.70;99.90
18805;DHT22;9530;48.930;9.526;2022-07-06T02:33:38;13.60;99.90
18805;DHT22;9530;48.930;9.526;2022-07-06T02:36:05;13.50;99.90
18805;DHT22;9530;48.930;9.526;2022-07-06T02:38:32;13.50;99.90
18805;DHT22;9530;48.930;9.526;2022-07-06T02:40:58;13.50;99.90
18805;DHT22;9530;48.930;9.526;2022-07-06T02:43:25;13.50;99.90
18805;DHT22;9530;48.930;9.526;2022-07-06T02:45:53;13.50;99.90
18805;DHT22;9530;48.930;9.526;2022-07-06T02:48:20;13.50;99.90
18805;DHT22;9530;48.930;9.526;2022-07-06T02:50:47;13.40;99.90
18805;DHT22;9530;48.930;9.526;2022-07-06T02:53:13;13.40;99.90
18805;DHT22;9530;48.930;9.526;2022-07-06T02:55:40;13.30;99.90
18805;DHT22;9530;48.930;9.526;2022-07-06T02:58:07;13.20;99.90
18805;DHT22;9530;48.930;9.526;2022-07-06T03:00:33;13.20;99.90
18805;DHT22;9530;48.930;9.526;2022-07-06T03:03:01;13.30;99.90
18805;DHT22;9530;48.930;9.526;2022-07-06T03:05:28;13.20;99.90
18805;DHT22;9530;48.930;9.526;2022-07-06T03:07:55;13.20;99.90
18805;DHT22;9530;48.930;9.526;2022-07-06T03:10:21;13.30;99.90
18805;DHT22;9530;48.930;9.526;2022-07-06T03:12:48;13.20;99.90
18805;DHT22;9530;48.930;9.526;2022-07-06T03:15:14;13.10;99.90
18805;DHT22;9530;48.930;9.526;2022-07-06T03:17:41;13.10;99.90
18805;DHT22;9530;48.930;9.526;2022-07-06T03:20:10;13.10;99.90
18805;DHT22;9530;48.930;9.526;2022-07-06T03:22:37;13.00;99.90
18805;DHT22;9530;48.930;9.526;2022-07-06T03:25:04;13.10;99.90
18805;DHT22;9530;48.930;9.526;2022-07-06T03:27:31;13.10;99.90
18805;DHT22;9530;48.930;9.526;2022-07-06T03:29:59;13.20;99.90
18805;DHT22;9530;48.930;9.526;2022-07-06T03:32:26;13.20;99.90
18805;DHT22;9530;48.930;9.526;2022-07-06T03:34:52;13.10;99.90
18805;DHT22;9530;48.930;9.526;2022-07-06T03:37:20;13.10;99.90
18805;DHT22;9530;48.930;9.526;2022-07-06T03:39:47;13.10;99.90
18805;DHT22;9530;48.930;9.526;2022-07-06T03:42:13;13.00;99.90
18805;DHT22;9530;48.930;9.526;2022-07-06T03:44:40;13.00;99.90
18805;DHT22;9530;48.930;9.526;2022-07-06T03:47:07;13.10;99.90
18805;DHT22;9530;48.930;9.526;2022-07-06T03:49:34;13.00;99.90
18805;DHT22;9530;48.930;9.526;2022-07-06T03:52:00;13.10;99.90
18805;DHT22;9530;48.930;9.526;2022-07-06T03:54:28;13.10;99.90
18805;DHT22;9530;48.930;9.526;2022-07-06T03:56:55;13.10;99.90
18805;DHT22;9530;48.930;9.526;2022-07-06T03:59:21;13.10;99.90
18805;DHT22;9530;48.930;9.526;2022-07-06T04:01:48;13.10;99.90
18805;DHT22;9530;48.930;9.526;2022-07-06T04:04:15;13.00;99.90
18805;DHT22;9530;48.930;9.526;2022-07-06T04:06:41;12.90;99.90
18805;DHT22;9530;48.930;9.526;2022-07-06T04:09:08;13.00;99.90
18805;DHT22;9530;48.930;9.526;2022-07-06T04:11:36;13.00;99.90
18805;DHT22;9530;48.930;9.526;2022-07-06T04:14:03;13.00;99.90
18805;DHT22;9530;48.930;9.526;2022-07-06T04:16:29;13.10;99.90
18805;DHT22;9530;48.930;9.526;2022-07-06T04:18:56;13.10;99.90
18805;DHT22;9530;48.930;9.526;2022-07-06T04:21:23;13.10;99.90
18805;DHT22;9530;48.930;9.526;2022-07-06T04:23:49;13.10;99.90
18805;DHT22;9530;48.930;9.526;2022-07-06T04:26:16;13.20;99.90
18805;DHT22;9530;48.930;9.526;2022-07-06T04:28:44;13.20;99.90
18805;DHT22;9530;48.930;9.526;2022-07-06T04:31:11;13.30;99.90
18805;DHT22;9530;48.930;9.526;2022-07-06T04:33:40;13.40;99.90
18805;DHT22;9530;48.930;9.526;2022-07-06T04:36:07;13.40;99.90
18805;DHT22;9530;48.930;9.526;2022-07-06T04:38:34;13.30;99.90
18805;DHT22;9530;48.930;9.526;2022-07-06T04:41:00;13.40;99.90
18805;DHT22;9530;48.930;9.526;2022-07-06T04:43:27;13.40;99.90
18805;DHT22;9530;48.930;9.526;2022-07-06T04:45:55;13.40;99.90
18805;DHT22;9530;48.930;9.526;2022-07-06T04:48:22;13.50;99.90
18805;DHT22;9530;48.930;9.526;2022-07-06T04:50:48;13.40;99.90
18805;DHT22;9530;48.930;9.526;2022-07-06T04:53:15;13.50;99.90
18805;DHT22;9530;48.930;9.526;2022-07-06T04:55:42;13.50;99.90
18805;DHT22;9530;48.930;9.526;2022-07-06T04:58:08;13.60;99.90
18805;DHT22;9530;48.930;9.526;2022-07-06T05:00:35;13.60;99.90
18805;DHT22;9530;48.930;9.526;2022-07-06T05:03:03;13.70;99.90
18805;DHT22;9530;48.930;9.526;2022-07-06T05:05:30;13.80;99.90
18805;DHT22;9530;48.930;9.526;2022-07-06T05:07:56;13.90;99.90
18805;DHT22;9530;48.930;9.526;2022-07-06T05:10:23;14.00;99.90
18805;DHT22;9530;48.930;9.526;2022-07-06T05:12:50;14.10;99.90
18805;DHT22;9530;48.930;9.526;2022-07-06T05:15:16;14.40;99.90
18805;DHT22;9530;48.930;9.526;2022-07-06T05:17:43;14.50;99.90
18805;DHT22;9530;48.930;9.526;2022-07-06T05:20:11;14.50;99.90
18805;DHT22;9530;48.930;9.526;2022-07-06T05:22:38;14.60;99.90
18805;DHT22;9530;48.930;9.526;2022-07-06T05:25:05;14.60;99.90
18805;DHT22;9530;48.930;9.526;2022-07-06T05:27:32;14.70;99.90
18805;DHT22;9530;48.930;9.526;2022-07-06T05:29:58;14.90;99.90
18805;DHT22;9530;48.930;9.526;2022-07-06T05:32:25;15.00;99.90
18805;DHT22;9530;48.930;9.526;2022-07-06T05:34:52;15.10;99.90
18805;DHT22;9530;48.930;9.526;2022-07-06T05:37:20;15.30;99.90
18805;DHT22;9530;48.930;9.526;2022-07-06T05:39:47;15.30;99.90
18805;DHT22;9530;48.930;9.526;2022-07-06T05:42:15;15.40;99.90
18805;DHT22;9530;48.930;9.526;2022-07-06T05:44:41;15.50;99.90
18805;DHT22;9530;48.930;9.526;2022-07-06T05:47:08;15.50;99.90
18805;DHT22;9530;48.930;9.526;2022-07-06T05:49:52;15.50;99.90
18805;DHT22;9530;48.930;9.526;2022-07-06T05:52:38;15.60;99.90
18805;DHT22;9530;48.930;9.526;2022-07-06T05:55:05;15.70;99.90
18805;DHT22;9530;48.930;9.526;2022-07-06T05:57:32;15.80;99.90
18805;DHT22;9530;48.930;9.526;2022-07-06T05:59:59;15.80;99.90
18805;DHT22;9530;48.930;9.526;2022-07-06T06:02:25;15.90;99.90
18805;DHT22;9530;48.930;9.526;2022-07-06T06:04:52;16.20;99.90
18805;DHT22;9530;48.930;9.526;2022-07-06T06:07:19;16.40;99.90
18805;DHT22;9530;48.930;9.526;2022-07-06T06:09:47;16.70;99.90
18805;DHT22;9530;48.930;9.526;2022-07-06T06:12:14;17.00;99.90
18805;DHT22;9530;48.930;9.526;2022-07-06T06:14:40;17.20;99.90
18805;DHT22;9530;48.930;9.526;2022-07-06T06:17:07;17.10;99.90
18805;DHT22;9530;48.930;9.526;2022-07-06T06:19:35;17.00;99.90
18805;DHT22;9530;48.930;9.526;2022-07-06T06:22:03;17.20;99.90
18805;DHT22;9530;48.930;9.526;2022-07-06T06:24:30;17.30;99.90
18805;DHT22;9530;48.930;9.526;2022-07-06T06:26:58;17.50;99.90
18805;DHT22;9530;48.930;9.526;2022-07-06T06:29:25;17.40;99.90
18805;DHT22;9530;48.930;9.526;2022-07-06T06:31:52;17.50;99.90
18805;DHT22;9530;48.930;9.526;2022-07-06T06:34:19;17.50;99.90
18805;DHT22;9530;48.930;9.526;2022-07-06T06:36:45;17.70;99.90
18805;DHT22;9530;48.930;9.526;2022-07-06T06:39:12;17.70;99.90
18805;DHT22;9530;48.930;9.526;2022-07-06T06:41:39;17.90;99.90
18805;DHT22;9530;48.930;9.526;2022-07-06T06:44:07;18.00;99.90
18805;DHT22;9530;48.930;9.526;2022-07-06T06:46:34;17.90;99.90
18805;DHT22;9530;48.930;9.526;2022-07-06T06:49:00;17.90;99.90
18805;DHT22;9530;48.930;9.526;2022-07-06T06:51:27;17.90;99.90
18805;DHT22;9530;48.930;9.526;2022-07-06T06:53:54;18.00;99.90
18805;DHT22;9530;48.930;9.526;2022-07-06T06:56:20;18.00;99.90
18805;DHT22;9530;48.930;9.526;2022-07-06T06:58:47;18.10;99.90
18805;DHT22;9530;48.930;9.526;2022-07-06T07:01:15;18.00;99.90
18805;DHT22;9530;48.930;9.526;2022-07-06T07:03:42;18.00;99.90
18805;DHT22;9530;48.930;9.526;2022-07-06T07:06:08;17.90;99.90
18805;DHT22;9530;48.930;9.526;2022-07-06T07:08:35;18.00;99.90
18805;DHT22;9530;48.930;9.526;2022-07-06T07:11:02;18.20;99.90
18805;DHT22;9530;48.930;9.526;2022-07-06T07:13:29;18.50;99.90
18805;DHT22;9530;48.930;9.526;2022-07-06T07:15:55;18.60;99.90
18805;DHT22;9530;48.930;9.526;2022-07-06T07:18:24;18.90;99.90
18805;DHT22;9530;48.930;9.526;2022-07-06T07:20:51;19.00;99.90
18805;DHT22;9530;48.930;9.526;2022-07-06T07:23:17;19.10;99.90
18805;DHT22;9530;48.930;9.526;2022-07-06T07:25:44;19.20;99.90
18805;DHT22;9530;48.930;9.526;2022-07-06T07:28:10;19.40;99.90
18805;DHT22;9530;48.930;9.526;2022-07-06T07:30:37;19.50;99.90
18805;DHT22;9530;48.930;9.526;2022-07-06T07:33:04;19.80;99.90
18805;DHT22;9530;48.930;9.526;2022-07-06T07:35:32;20.00;99.90
18805;DHT22;9530;48.930;9.526;2022-07-06T07:37:58;19.90;99.90
18805;DHT22;9530;48.930;9.526;2022-07-06T07:40:25;19.90;99.90
18805;DHT22;9530;48.930;9.526;2022-07-06T07:42:52;20.00;99.90
18805;DHT22;9530;48.930;9.526;2022-07-06T07:45:19;19.50;99.90
18805;DHT22;9530;48.930;9.526;2022-07-06T07:47:46;19.60;99.90
18805;DHT22;9530;48.930;9.526;2022-07-06T07:50:12;19.80;99.90
18805;DHT22;9530;48.930;9.526;2022-07-06T07:52:41;20.00;99.90
18805;DHT22;9530;48.930;9.526;2022-07-06T07:55:08;20.20;99.90
18805;DHT22;9530;48.930;9.526;2022-07-06T07:57:35;20.30;99.90
18805;DHT22;9530;48.930;9.526;2022-07-06T08:00:03;20.60;99.90
18805;DHT22;9530;48.930;9.526;2022-07-06T08:02:30;20.70;99.90
18805;DHT22;9530;48.930;9.526;2022-07-06T08:04:56;21.10;99.90
18805;DHT22;9530;48.930;9.526;2022-07-06T08:07:23;21.20;99.90
18805;DHT22;9530;48.930;9.526;2022-07-06T08:09:51;21.30;99.90
18805;DHT22;9530;48.930;9.526;2022-07-06T08:12:18;21.20;99.90
18805;DHT22;9530;48.930;9.526;2022-07-06T08:14:44;21.20;99.90
18805;DHT22;9530;48.930;9.526;2022-07-06T08:17:11;21.20;99.90
18805;DHT22;9530;48.930;9.526;2022-07-06T08:19:38;21.10;99.90
18805;DHT22;9530;48.930;9.526;2022-07-06T08:22:05;21.40;99.90
18805;DHT22;9530;48.930;9.526;2022-07-06T08:24:33;21.60;99.90
18805;DHT22;9530;48.930;9.526;2022-07-06T08:27:01;21.40;99.90
18805;DHT22;9530;48.930;9.526;2022-07-06T08:29:28;21.60;99.90
18805;DHT22;9530;48.930;9.526;2022-07-06T08:31:55;21.70;99.90
18805;DHT22;9530;48.930;9.526;2022-07-06T08:34:22;22.00;99.90
18805;DHT22;9530;48.930;9.526;2022-07-06T08:36:50;22.20;99.90
18805;DHT22;9530;48.930;9.526;2022-07-06T08:39:16;22.00;99.90
18805;DHT22;9530;48.930;9.526;2022-07-06T08:41:44;22.30;99.90
18805;DHT22;9530;48.930;9.526;2022-07-06T08:44:15;22.40;99.90
18805;DHT22;9530;48.930;9.526;2022-07-06T08:46:42;22.60;99.90
18805;DHT22;9530;48.930;9.526;2022-07-06T08:49:15;22.60;99.90
18805;DHT22;9530;48.930;9.526;2022-07-06T08:51:42;22.50;99.90
18805;DHT22;9530;48.930;9.526;2022-07-06T08:54:11;22.60;99.90
18805;DHT22;9530;48.930;9.526;2022-07-06T08:56:38;22.60;99.90
18805;DHT22;9530;48.930;9.526;2022-07-06T08:59:05;22.70;99.90
18805;DHT22;9530;48.930;9.526;2022-07-06T09:01:35;22.80;99.90
18805;DHT22;9530;48.930;9.526;2022-07-06T09:04:04;22.90;99.90
18805;DHT22;9530;48.930;9.526;2022-07-06T09:06:31;23.00;99.90
18805;DHT22;9530;48.930;9.526;2022-07-06T09:09:01;22.80;99.90
18805;DHT22;9530;48.930;9.526;2022-07-06T09:11:31;22.90;99.90
18805;DHT22;9530;48.930;9.526;2022-07-06T09:13:58;23.10;99.90
18805;DHT22;9530;48.930;9.526;2022-07-06T09:16:26;23.20;99.90
18805;DHT22;9530;48.930;9.526;2022-07-06T09:18:55;23.30;99.90
18805;DHT22;9530;48.930;9.526;2022-07-06T09:21:23;23.20;99.90
18805;DHT22;9530;48.930;9.526;2022-07-06T09:23:53;23.30;99.90
18805;DHT22;9530;48.930;9.526;2022-07-06T09:26:21;23.40;99.90
18805;DHT22;9530;48.930;9.526;2022-07-06T09:28:48;23.60;99.90
18805;DHT22;9530;48.930;9.526;2022-07-06T09:31:15;23.70;99.90
18805;DHT22;9530;48.930;9.526;2022-07-06T09:33:55;23.90;99.90
18805;DHT22;9530;48.930;9.526;2022-07-06T09:36:38;24.10;99.90
18805;DHT22;9530;48.930;9.526;2022-07-06T09:39:19;24.10;99.90
18805;DHT22;9530;48.930;9.526;2022-07-06T09:41:47;24.00;99.90
18805;DHT22;9530;48.930;9.526;2022-07-06T09:44:20;24.20;99.90
18805;DHT22;9530;48.930;9.526;2022-07-06T09:46:47;23.90;99.90
18805;DHT22;9530;48.930;9.526;2022-07-06T09:49:18;24.10;99.90
18805;DHT22;9530;48.930;9.526;2022-07-06T09:51:46;24.00;99.90
18805;DHT22;9530;48.930;9.526;2022-07-06T09:54:13;24.20;99.90
18805;DHT22;9530;48.930;9.526;2022-07-06T09:56:42;24.50;99.90
18805;DHT22;9530;48.930;9.526;2022-07-06T09:59:09;24.40;99.90
18805;DHT22;9530;48.930;9.526;2022-07-06T10:01:37;24.40;99.90
18805;DHT22;9530;48.930;9.526;2022-07-06T10:04:05;24.40;99.90
18805;DHT22;9530;48.930;9.526;2022-07-06T10:06:33;24.50;99.90
18805;DHT22;9530;48.930;9.526;2022-07-06T10:09:00;24.40;99.90
18805;DHT22;9530;48.930;9.526;2022-07-06T10:11:28;24.40;99.90
18805;DHT22;9530;48.930;9.526;2022-07-06T10:13:57;24.30;99.90
18805;DHT22;9530;48.930;9.526;2022-07-06T10:16:24;24.40;99.90
18805;DHT22;9530;48.930;9.526;2022-07-06T10:18:51;24.30;99.90
18805;DHT22;9530;48.930;9.526;2022-07-06T10:21:20;23.70;99.90
18805;DHT22;9530;48.930;9.526;2022-07-06T10:23:50;23.40;99.90
18805;DHT22;9530;48.930;9.526;2022-07-06T10:26:17;23.70;99.90
18805;DHT22;9530;48.930;9.526;2022-07-06T10:28:44;23.90;99.90
18805;DHT22;9530;48.930;9.526;2022-07-06T10:31:13;24.20;99.90
18805;DHT22;9530;48.930;9.526;2022-07-06T10:33:41;24.30;99.90
18805;DHT22;9530;48.930;9.526;2022-07-06T10:36:08;24.20;99.90
18805;DHT22;9530;48.930;9.526;2022-07-06T10:38:35;24.60;99.90
18805;DHT22;9530;48.930;9.526;2022-07-06T10:41:05;24.90;99.90
18805;DHT22;9530;48.930;9.526;2022-07-06T10:43:33;24.60;99.90
18805;DHT22;9530;48.930;9.526;2022-07-06T10:46:06;24.30;99.90
18805;DHT22;9530;48.930;9.526;2022-07-06T10:48:36;24.70;99.90
18805;DHT22;9530;48.930;9.526;2022-07-06T10:51:03;25.10;99.90
18805;DHT22;9530;48.930;9.526;2022-07-06T10:53:33;25.20;99.90
18805;DHT22;9530;48.930;9.526;2022-07-06T10:56:04;24.50;99.90
18805;DHT22;9530;48.930;9.526;2022-07-06T11:01:19;24.20;99.90
18805;DHT22;9530;48.930;9.526;2022-07-06T11:03:47;24.00;99.90
18805;DHT22;9530;48.930;9.526;2022-07-06T11:06:16;24.00;99.90
18805;DHT22;9530;48.930;9.526;2022-07-06T11:08:50;24.20;99.90
18805;DHT22;9530;48.930;9.526;2022-07-06T11:11:19;24.40;99.90
18805;DHT22;9530;48.930;9.526;2022-07-06T11:13:52;24.70;99.90
18805;DHT22;9530;48.930;9.526;2022-07-06T11:16:20;24.40;99.90
18805;DHT22;9530;48.930;9.526;2022-07-06T11:18:48;23.90;99.90
18805;DHT22;9530;48.930;9.526;2022-07-06T11:21:16;23.80;99.90
18805;DHT22;9530;48.930;9.526;2022-07-06T11:23:45;23.50;99.90
18805;DHT22;9530;48.930;9.526;2022-07-06T11:26:13;23.40;99.90
18805;DHT22;9530;48.930;9.526;2022-07-06T11:28:41;23.60;99.90
18805;DHT22;9530;48.930;9.526;2022-07-06T11:31:08;23.80;99.90
18805;DHT22;9530;48.930;9.526;2022-07-06T11:33:35;24.40;99.90
18805;DHT22;9530;48.930;9.526;2022-07-06T11:36:12;24.70;99.90
18805;DHT22;9530;48.930;9.526;2022-07-06T11:38:39;25.10;99.90
18805;DHT22;9530;48.930;9.526;2022-07-06T11:41:05;25.30;99.90
18805;DHT22;9530;48.930;9.526;2022-07-06T11:43:32;25.30;99.90
18805;DHT22;9530;48.930;9.526;2022-07-06T11:46:00;25.80;99.90
18805;DHT22;9530;48.930;9.526;2022-07-06T11:48:27;25.80;99.90
18805;DHT22;9530;48.930;9.526;2022-07-06T11:50:58;25.80;99.90
18805;DHT22;9530;48.930;9.526;2022-07-06T11:53:24;25.10;99.90
18805;DHT22;9530;48.930;9.526;2022-07-06T11:55:51;25.00;99.90
18805;DHT22;9530;48.930;9.526;2022-07-06T11:58:21;24.40;99.90
18805;DHT22;9530;48.930;9.526;2022-07-06T12:01:06;23.80;99.90
18805;DHT22;9530;48.930;9.526;2022-07-06T12:03:33;23.70;99.90
18805;DHT22;9530;48.930;9.526;2022-07-06T12:06:00;24.00;99.90
18805;DHT22;9530;48.930;9.526;2022-07-06T12:08:27;24.20;99.90
18805;DHT22;9530;48.930;9.526;2022-07-06T12:10:54;24.30;99.90
18805;DHT22;9530;48.930;9.526;2022-07-06T12:13:22;24.40;99.90
18805;DHT22;9530;48.930;9.526;2022-07-06T12:15:49;23.70;99.90
18805;DHT22;9530;48.930;9.526;2022-07-06T12:18:17;24.10;99.90
18805;DHT22;9530;48.930;9.526;2022-07-06T12:20:44;24.70;99.90
18805;DHT22;9530;48.930;9.526;2022-07-06T12:23:10;25.00;99.90
18805;DHT22;9530;48.930;9.526;2022-07-06T12:25:37;25.20;99.90
18805;DHT22;9530;48.930;9.526;2022-07-06T12:28:04;24.50;99.90
18805;DHT22;9530;48.930;9.526;2022-07-06T12:30:32;24.20;99.90
18805;DHT22;9530;48.930;9.526;2022-07-06T12:33:12;24.50;99.90
18805;DHT22;9530;48.930;9.526;2022-07-06T12:35:41;24.80;99.90
18805;DHT22;9530;48.930;9.526;2022-07-06T12:38:08;23.80;99.90
18805;DHT22;9530;48.930;9.526;2022-07-06T12:40:36;23.30;99.90
18805;DHT22;9530;48.930;9.526;2022-07-06T12:43:03;23.80;99.90
18805;DHT22;9530;48.930;9.526;2022-07-06T12:45:31;24.50;99.90
18805;DHT22;9530;48.930;9.526;2022-07-06T12:47:58;24.70;99.90
18805;DHT22;9530;48.930;9.526;2022-07-06T12:50:32;24.90;99.90
18805;DHT22;9530;48.930;9.526;2022-07-06T12:53:02;24.90;99.90
18805;DHT22;9530;48.930;9.526;2022-07-06T12:55:30;24.90;99.90
18805;DHT22;9530;48.930;9.526;2022-07-06T12:57:58;24.90;99.90
18805;DHT22;9530;48.930;9.526;2022-07-06T13:00:25;25.20;99.90
18805;DHT22;9530;48.930;9.526;2022-07-06T13:02:52;25.30;99.90
18805;DHT22;9530;48.930;9.526;2022-07-06T13:05:25;24.60;99.90
18805;DHT22;9530;48.930;9.526;2022-07-06T13:07:54;24.40;99.90
18805;DHT22;9530;48.930;9.526;2022-07-06T13:10:23;24.30;99.90
18805;DHT22;9530;48.930;9.526;2022-07-06T13:12:51;24.60;99.90
18805;DHT22;9530;48.930;9.526;2022-07-06T13:15:17;25.10;99.90
18805;DHT22;9530;48.930;9.526;2022-07-06T13:17:44;25.30;99.90
18805;DHT22;9530;48.930;9.526;2022-07-06T13:20:12;25.70;99.90
18805;DHT22;9530;48.930;9.526;2022-07-06T13:22:39;25.50;99.90
18805;DHT22;9530;48.930;9.526;2022-07-06T13:25:07;25.20;99.90
18805;DHT22;9530;48.930;9.526;2022-07-06T13:27:35;24.80;99.90
18805;DHT22;9530;48.930;9.526;2022-07-06T13:30:02;24.40;99.90
18805;DHT22;9530;48.930;9.526;2022-07-06T13:32:29;23.80;99.90
18805;DHT22;9530;48.930;9.526;2022-07-06T13:34:55;23.20;99.90
18805;DHT22;9530;48.930;9.526;2022-07-06T13:37:22;23.70;99.90
18805;DHT22;9530;48.930;9.526;2022-07-06T13:39:49;23.90;99.90
18805;DHT22;9530;48.930;9.526;2022-07-06T13:42:15;24.00;99.90
18805;DHT22;9530;48.930;9.526;2022-07-06T13:44:43;23.80;99.90
18805;DHT22;9530;48.930;9.526;2022-07-06T13:47:10;23.70;99.90
18805;DHT22;9530;48.930;9.526;2022-07-06T13:49:37;23.50;99.90
18805;DHT22;9530;48.930;9.526;2022-07-06T13:52:05;23.70;99.90
18805;DHT22;9530;48.930;9.526;2022-07-06T13:54:32;24.20;99.90
18805;DHT22;9530;48.930;9.526;2022-07-06T13:57:02;24.80;99.90
18805;DHT22;9530;48.930;9.526;2022-07-06T13:59:28;25.20;99.90
18805;DHT22;9530;48.930;9.526;2022-07-06T14:01:57;24.40;99.90
18805;DHT22;9530;48.930;9.526;2022-07-06T14:04:23;24.30;99.90
18805;DHT22;9530;48.930;9.526;2022-07-06T14:06:50;25.10;99.90
18805;DHT22;9530;48.930;9.526;2022-07-06T14:09:17;25.50;99.90
18805;DHT22;9530;48.930;9.526;2022-07-06T14:11:44;25.00;99.90
18805;DHT22;9530;48.930;9.526;2022-07-06T14:14:10;25.00;99.90
18805;DHT22;9530;48.930;9.526;2022-07-06T14:16:37;24.60;99.90
18805;DHT22;9530;48.930;9.526;2022-07-06T14:19:07;25.00;99.90
18805;DHT22;9530;48.930;9.526;2022-07-06T14:21:33;25.20;99.90
18805;DHT22;9530;48.930;9.526;2022-07-06T14:24:00;25.70;99.90
18805;DHT22;9530;48.930;9.526;2022-07-06T14:26:27;26.30;99.90
18805;DHT22;9530;48.930;9.526;2022-07-06T14:28:54;26.60;99.90
18805;DHT22;9530;48.930;9.526;2022-07-06T14:31:20;26.60;99.90
18805;DHT22;9530;48.930;9.526;2022-07-06T14:33:47;26.10;99.90
18805;DHT22;9530;48.930;9.526;2022-07-06T14:36:16;25.50;99.90
18805;DHT22;9530;48.930;9.526;2022-07-06T14:38:42;25.00;99.90
18805;DHT22;9530;48.930;9.526;2022-07-06T14:41:09;25.60;99.90
18805;DHT22;9530;48.930;9.526;2022-07-06T14:43:36;25.40;99.90
18805;DHT22;9530;48.930;9.526;2022-07-06T14:46:02;25.70;99.90
18805;DHT22;9530;48.930;9.526;2022-07-06T14:48:29;25.60;99.90
18805;DHT22;9530;48.930;9.526;2022-07-06T14:50:56;25.80;99.90
18805;DHT22;9530;48.930;9.526;2022-07-06T14:53:25;25.60;99.90
18805;DHT22;9530;48.930;9.526;2022-07-06T14:55:52;24.90;99.90
18805;DHT22;9530;48.930;9.526;2022-07-06T14:58:19;24.50;99.90
18805;DHT22;9530;48.930;9.526;2022-07-06T15:00:46;25.10;99.90
18805;DHT22;9530;48.930;9.526;2022-07-06T15:03:12;24.40;99.90
18805;DHT22;9530;48.930;9.526;2022-07-06T15:05:39;24.60;99.90
18805;DHT22;9530;48.930;9.526;2022-07-06T15:08:08;24.80;99.90
18805;DHT22;9530;48.930;9.526;2022-07-06T15:10:36;25.50;99.90
18805;DHT22;9530;48.930;9.526;2022-07-06T15:13:03;25.80;99.90
18805;DHT22;9530;48.930;9.526;2022-07-06T15:15:30;25.80;99.10
18805;DHT22;9530;48.930;9.526;2022-07-06T15:17:57;26.60;99.90
18805;DHT22;9530;48.930;9.526;2022-07-06T15:20:24;28.60;98.30
18805;DHT22;9530;48.930;9.526;2022-07-06T15:22:50;30.20;93.60
18805;DHT22;9530;48.930;9.526;2022-07-06T15:25:17;31.10;92.00
18805;DHT22;9530;48.930;9.526;2022-07-06T15:27:46;31.80;90.80
18805;DHT22;9530;48.930;9.526;2022-07-06T15:30:13;30.30;85.30
18805;DHT22;9530;48.930;9.526;2022-07-06T15:32:40;31.50;86.20
18805;DHT22;9530;48.930;9.526;2022-07-06T15:35:07;31.70;86.20
18805;DHT22;9530;48.930;9.526;2022-07-06T15:37:34;32.30;84.10
18805;DHT22;9530;48.930;9.526;2022-07-06T15:40:02;33.30;78.10
18805;DHT22;9530;48.930;9.526;2022-07-06T15:42:29;32.10;76.30
18805;DHT22;9530;48.930;9.526;2022-07-06T15:44:57;31.20;75.90
18805;DHT22;9530;48.930;9.526;2022-07-06T15:47:24;29.50;80.30
18805;DHT22;9530;48.930;9.526;2022-07-06T15:49:51;30.60;77.80